createdAt,value
2019-03-04T00:00:15.916Z,11.00
2019-03-04T00:02:42.317Z,10.90
2019-03-04T00:05:08.783Z,10.90
2019-03-04T00:07:35.301Z,11.00
2019-03-04T00:10:01.662Z,11.00
2019-03-04T00:12:28.046Z,11.00
2019-03-04T00:14:54.348Z,11.00
2019-03-04T00:17:20.620Z,11.00
2019-03-04T00:19:46.887Z,11.00
2019-03-04T00:22:15.104Z,11.00
2019-03-04T00:24:41.612Z,10.90
2019-03-04T00:27:10.208Z,10.90
2019-03-04T00:29:38.956Z,10.90
2019-03-04T00:32:05.236Z,11.00
2019-03-04T00:34:31.488Z,10.90
2019-03-04T00:36:57.741Z,10.90
2019-03-04T00:39:24.007Z,10.90
2019-03-04T00:41:50.231Z,10.90
2019-03-04T00:44:16.522Z,10.90
2019-03-04T00:46:43.895Z,11.00
2019-03-04T00:49:10.182Z,10.90
2019-03-04T00:51:36.429Z,10.90
2019-03-04T00:54:03.189Z,10.90
2019-03-04T00:56:29.484Z,11.00
2019-03-04T00:58:55.945Z,11.00
2019-03-04T01:01:22.194Z,10.90
2019-03-04T01:03:48.704Z,11.00
2019-03-04T01:06:14.947Z,11.00
2019-03-04T01:08:41.237Z,11.00
2019-03-04T01:11:07.985Z,11.00
2019-03-04T01:13:34.270Z,11.00
2019-03-04T01:16:00.606Z,11.00
2019-03-04T01:18:27.504Z,11.10
2019-03-04T01:20:53.878Z,11.10
2019-03-04T01:23:20.273Z,11.10
2019-03-04T01:25:46.630Z,11.20
2019-03-04T01:28:12.897Z,11.20
2019-03-04T01:30:39.271Z,11.20
2019-03-04T01:33:06.001Z,11.30
2019-03-04T01:35:32.261Z,11.20
2019-03-04T01:37:58.590Z,11.20
2019-03-04T01:40:27.044Z,11.10
2019-03-04T01:42:55.223Z,11.10
2019-03-04T01:45:21.495Z,11.20
2019-03-04T01:47:47.747Z,11.20
2019-03-04T01:50:15.715Z,11.20
2019-03-04T01:52:42.590Z,11.20
2019-03-04T01:55:10.994Z,11.20
2019-03-04T01:57:37.578Z,11.30
2019-03-04T02:00:08.511Z,11.30
2019-03-04T02:02:34.910Z,11.30
2019-03-04T02:05:01.282Z,11.30
2019-03-04T02:07:27.543Z,11.30
2019-03-04T02:09:53.948Z,11.30
2019-03-04T02:12:20.339Z,11.30
2019-03-04T02:14:46.639Z,11.20
2019-03-04T02:17:12.996Z,11.10
2019-03-04T02:19:39.255Z,11.10
2019-03-04T02:22:06.240Z,11.20
2019-03-04T02:24:32.498Z,11.20
2019-03-04T02:27:00.370Z,11.20
2019-03-04T02:29:26.650Z,11.20
2019-03-04T02:31:53.005Z,11.20
2019-03-04T02:34:20.167Z,11.20
2019-03-04T02:36:46.647Z,11.20
2019-03-04T02:39:12.990Z,11.20
2019-03-04T02:41:39.596Z,11.30
2019-03-04T02:44:05.943Z,11.20
2019-03-04T02:46:32.213Z,11.20
2019-03-04T02:48:58.570Z,11.20
2019-03-04T02:51:24.881Z,11.20
2019-03-04T02:53:51.124Z,11.20
2019-03-04T02:56:17.390Z,11.30
2019-03-04T02:58:43.792Z,11.20
2019-03-04T03:01:10.069Z,11.30
2019-03-04T03:03:36.407Z,11.30
2019-03-04T03:06:03.090Z,11.30
2019-03-04T03:08:29.351Z,11.40
2019-03-04T03:10:55.705Z,11.40
2019-03-04T03:13:21.969Z,11.50
2019-03-04T03:15:50.273Z,11.50
2019-03-04T03:18:16.610Z,11.50
2019-03-04T03:20:45.082Z,11.50
2019-03-04T03:23:11.364Z,11.50
2019-03-04T03:25:39.509Z,11.50
2019-03-04T03:28:05.758Z,11.60
2019-03-04T03:30:34.575Z,11.60
2019-03-04T03:33:00.800Z,11.60
2019-03-04T03:35:27.271Z,11.60
2019-03-04T03:37:53.687Z,11.60
2019-03-04T03:40:20.376Z,11.60
2019-03-04T03:42:47.206Z,11.60
2019-03-04T03:45:17.136Z,11.60
2019-03-04T03:47:46.154Z,11.60
2019-03-04T03:50:16.295Z,11.70
2019-03-04T03:52:42.944Z,11.70
2019-03-04T03:55:10.934Z,11.70
2019-03-04T03:57:37.668Z,11.70
2019-03-04T04:00:15.868Z,11.70
2019-03-04T04:02:42.370Z,11.70
2019-03-04T04:05:08.734Z,11.70
2019-03-04T04:07:35.025Z,11.80
2019-03-04T04:10:01.284Z,11.80
2019-03-04T04:12:27.582Z,11.70
2019-03-04T04:14:53.825Z,11.70
2019-03-04T04:17:20.293Z,11.80
2019-03-04T04:19:46.662Z,11.80
2019-03-04T04:22:13.058Z,11.90
2019-03-04T04:24:39.413Z,11.80
2019-03-04T04:27:05.657Z,11.80
2019-03-04T04:29:33.854Z,11.80
2019-03-04T04:32:00.090Z,11.90
2019-03-04T04:34:26.358Z,11.80
2019-03-04T04:36:52.623Z,11.90
2019-03-04T04:39:18.888Z,11.80
2019-03-04T04:41:45.177Z,11.80
2019-03-04T04:44:11.448Z,11.80
2019-03-04T04:46:46.959Z,11.90
2019-03-04T04:49:13.221Z,11.80
2019-03-04T04:51:39.452Z,11.90
2019-03-04T04:54:08.342Z,11.90
2019-03-04T04:56:34.572Z,11.80
2019-03-04T04:59:00.828Z,11.80
2019-03-04T05:01:29.946Z,11.90
2019-03-04T05:03:56.184Z,11.80
2019-03-04T05:06:22.608Z,11.90
2019-03-04T05:08:48.848Z,11.90
2019-03-04T05:11:15.096Z,11.90
2019-03-04T05:13:41.378Z,11.90
2019-03-04T05:16:09.086Z,11.90
2019-03-04T05:18:35.432Z,11.90
2019-03-04T05:21:01.853Z,12.00
2019-03-04T05:23:28.161Z,12.00
2019-03-04T05:25:54.505Z,12.00
2019-03-04T05:28:20.768Z,12.00
2019-03-04T05:30:47.034Z,11.90
2019-03-04T05:33:13.303Z,11.90
2019-03-04T05:35:39.590Z,12.00
2019-03-04T05:38:05.915Z,12.00
2019-03-04T05:40:32.159Z,11.90
2019-03-04T05:43:00.804Z,11.90
2019-03-04T05:45:27.094Z,11.90
2019-03-04T05:47:53.364Z,11.90
2019-03-04T05:50:25.666Z,12.00
2019-03-04T05:52:52.042Z,11.90
2019-03-04T05:55:18.293Z,11.90
2019-03-04T05:57:44.562Z,12.00
2019-03-04T06:00:14.562Z,12.00
2019-03-04T06:02:40.833Z,12.00
2019-03-04T06:05:09.182Z,12.00
2019-03-04T06:07:40.324Z,12.00
2019-03-04T06:10:10.357Z,12.00
2019-03-04T06:12:36.619Z,12.00
2019-03-04T06:15:06.713Z,12.00
2019-03-04T06:17:32.951Z,12.00
2019-03-04T06:20:02.103Z,12.00
2019-03-04T06:22:28.523Z,12.00
2019-03-04T06:24:54.766Z,12.00
2019-03-04T06:27:21.133Z,12.10
2019-03-04T06:29:47.524Z,12.10
2019-03-04T06:32:13.787Z,12.10
2019-03-04T06:34:40.139Z,12.10
2019-03-04T06:37:06.560Z,12.10
2019-03-04T06:39:34.974Z,12.20
2019-03-04T06:42:01.228Z,12.30
2019-03-04T06:44:27.515Z,12.40
2019-03-04T06:46:53.794Z,12.20
2019-03-04T06:49:24.118Z,12.20
2019-03-04T06:51:52.456Z,12.20
2019-03-04T06:54:28.361Z,12.30
2019-03-04T06:57:01.387Z,12.30
2019-03-04T06:59:48.395Z,12.20
2019-03-04T07:02:26.130Z,12.40
2019-03-04T07:05:17.467Z,12.20
2019-03-04T07:07:45.647Z,12.10
2019-03-04T07:10:11.966Z,12.00
2019-03-04T07:12:38.424Z,12.10
2019-03-04T07:15:07.192Z,12.00
2019-03-04T07:17:33.498Z,11.90
2019-03-04T07:20:14.567Z,11.90
2019-03-04T07:22:41.189Z,12.00
2019-03-04T07:25:08.528Z,11.90
2019-03-04T07:27:34.805Z,11.90
2019-03-04T07:30:03.605Z,11.90
2019-03-04T07:32:29.944Z,12.00
2019-03-04T07:34:56.718Z,12.10
2019-03-04T07:37:23.015Z,12.10
2019-03-04T07:39:49.406Z,11.90
2019-03-04T07:42:15.670Z,12.10
2019-03-04T07:44:41.942Z,11.90
2019-03-04T07:47:08.228Z,11.90
2019-03-04T07:49:34.643Z,12.10
2019-03-04T07:52:01.302Z,12.10
2019-03-04T07:54:27.540Z,12.00
2019-03-04T07:56:53.817Z,12.00
2019-03-04T07:59:22.492Z,12.10
2019-03-04T08:01:48.886Z,12.10
2019-03-04T08:04:15.371Z,12.00
2019-03-04T08:06:42.026Z,12.00
2019-03-04T08:09:23.861Z,12.00
2019-03-04T08:12:10.159Z,11.90
2019-03-04T08:14:36.434Z,11.90
2019-03-04T08:17:04.395Z,11.90
2019-03-04T08:19:30.827Z,11.90
2019-03-04T08:21:57.080Z,12.10
2019-03-04T08:24:23.371Z,12.00
2019-03-04T08:26:49.649Z,12.00
2019-03-04T08:29:15.900Z,12.00
2019-03-04T08:31:42.391Z,12.00
2019-03-04T08:34:09.414Z,12.20
2019-03-04T08:36:35.749Z,12.10
2019-03-04T08:39:04.976Z,12.00
2019-03-04T08:41:33.854Z,12.10
2019-03-04T08:44:00.645Z,12.10
2019-03-04T08:46:26.934Z,12.10
2019-03-04T08:48:55.155Z,12.20
2019-03-04T08:51:21.665Z,12.20
2019-03-04T08:53:48.303Z,12.00
2019-03-04T08:56:16.728Z,11.60
2019-03-04T08:58:44.060Z,11.50
2019-03-04T09:01:10.791Z,11.40
2019-03-04T09:03:37.107Z,11.50
2019-03-04T09:06:03.473Z,11.00
2019-03-04T09:08:29.870Z,10.30
2019-03-04T09:10:56.127Z,9.70
2019-03-04T09:13:22.515Z,9.30
2019-03-04T09:15:48.900Z,9.10
2019-03-04T09:18:15.398Z,9.00
2019-03-04T09:20:42.023Z,9.00
2019-03-04T09:23:08.499Z,9.00
2019-03-04T09:25:41.306Z,8.70
2019-03-04T09:28:07.803Z,8.70
2019-03-04T09:30:34.194Z,8.80
2019-03-04T09:33:00.715Z,8.90
2019-03-04T09:35:27.188Z,9.00
2019-03-04T09:37:53.633Z,8.90
2019-03-04T09:40:22.341Z,8.80
2019-03-04T09:42:50.035Z,8.70
2019-03-04T09:45:16.710Z,8.60
2019-03-04T09:47:43.549Z,8.60
2019-03-04T09:50:13.941Z,8.60
2019-03-04T09:52:40.447Z,8.50
2019-03-04T09:55:08.608Z,8.50
2019-03-04T09:57:34.902Z,8.50
2019-03-04T10:00:01.355Z,8.50
2019-03-04T10:02:27.918Z,8.60
2019-03-04T10:05:01.100Z,8.80
2019-03-04T10:07:43.636Z,9.00
2019-03-04T10:10:34.888Z,9.00
2019-03-04T10:13:11.138Z,9.00
2019-03-04T10:15:47.284Z,9.00
2019-03-04T10:18:26.174Z,9.00
2019-03-04T10:21:02.319Z,9.10
2019-03-04T10:23:47.737Z,9.20
2019-03-04T10:26:22.969Z,9.20
2019-03-04T10:28:55.920Z,9.20
2019-03-04T10:31:41.395Z,9.20
2019-03-04T10:34:20.249Z,9.20
2019-03-04T10:37:08.762Z,9.20
2019-03-04T10:40:15.614Z,9.20
2019-03-04T10:43:19.515Z,9.30
2019-03-04T10:46:12.549Z,9.30
2019-03-04T10:48:38.923Z,9.40
2019-03-04T10:51:05.216Z,9.40
2019-03-04T10:53:31.472Z,9.40
2019-03-04T10:55:57.816Z,9.40
2019-03-04T10:58:24.197Z,9.40
2019-03-04T11:00:50.639Z,9.40
2019-03-04T11:03:16.903Z,9.40
2019-03-04T11:05:43.264Z,9.40
2019-03-04T11:08:09.768Z,9.40
2019-03-04T11:10:36.100Z,9.40
2019-03-04T11:13:02.524Z,9.40
2019-03-04T11:15:29.023Z,9.40
2019-03-04T11:17:55.475Z,9.50
2019-03-04T11:20:21.872Z,9.50
2019-03-04T11:22:48.454Z,9.60
2019-03-04T11:25:15.899Z,9.70
2019-03-04T11:27:42.297Z,9.70
2019-03-04T11:30:15.085Z,9.80
2019-03-04T11:32:41.561Z,9.90
2019-03-04T11:35:10.709Z,10.00
2019-03-04T11:37:37.160Z,10.00
2019-03-04T11:40:07.436Z,10.00
2019-03-04T11:42:33.725Z,10.00
2019-03-04T11:45:00.386Z,10.10
2019-03-04T11:47:27.955Z,10.00
2019-03-04T11:49:54.354Z,10.00
2019-03-04T11:52:20.638Z,9.90
2019-03-04T11:54:47.001Z,9.80
2019-03-04T11:57:13.342Z,9.70
2019-03-04T11:59:39.737Z,8.90
2019-03-04T12:02:09.813Z,8.70
2019-03-04T12:04:36.290Z,8.60
2019-03-04T12:07:02.642Z,8.50
2019-03-04T12:09:29.016Z,8.40
2019-03-04T12:11:55.294Z,8.50
2019-03-04T12:14:21.576Z,8.40
2019-03-04T12:16:47.937Z,8.50
2019-03-04T12:19:14.633Z,8.60
2019-03-04T12:21:40.983Z,8.50
2019-03-04T12:24:07.229Z,8.50
2019-03-04T12:26:36.589Z,8.50
2019-03-04T12:29:03.126Z,8.60
2019-03-04T12:31:31.522Z,8.60
2019-03-04T12:33:57.900Z,8.50
2019-03-04T12:36:24.423Z,8.40
2019-03-04T12:38:50.693Z,8.40
2019-03-04T12:41:16.969Z,8.30
2019-03-04T12:43:43.257Z,8.30
2019-03-04T12:46:09.735Z,8.30
2019-03-04T12:48:36.133Z,8.40
2019-03-04T12:51:02.696Z,8.40
2019-03-04T12:53:37.088Z,8.40
2019-03-04T12:55:57.084Z,8.40
2019-03-04T12:58:23.479Z,8.40
2019-03-04T13:00:49.864Z,8.60
2019-03-04T13:03:19.537Z,8.70
2019-03-04T13:05:46.022Z,8.70
2019-03-04T13:08:12.303Z,8.80
2019-03-04T13:10:38.659Z,8.90
2019-03-04T13:13:05.039Z,9.00
2019-03-04T13:15:33.692Z,9.20
2019-03-04T13:17:59.995Z,9.30
2019-03-04T13:20:27.914Z,9.20
2019-03-04T13:22:54.230Z,9.10
2019-03-04T13:25:20.756Z,8.90
2019-03-04T13:27:47.090Z,8.90
2019-03-04T13:30:16.765Z,8.90
2019-03-04T13:32:43.161Z,9.10
2019-03-04T13:35:23.961Z,9.20
2019-03-04T13:37:43.644Z,9.20
2019-03-04T13:40:12.047Z,9.20
2019-03-04T13:42:38.509Z,9.10
2019-03-04T13:45:15.340Z,9.00
2019-03-04T13:47:41.774Z,9.00
2019-03-04T13:50:17.944Z,8.80
2019-03-04T13:52:44.403Z,8.80
2019-03-04T13:55:11.580Z,8.60
2019-03-04T13:57:37.956Z,8.60
2019-03-04T14:00:08.199Z,8.60
2019-03-04T14:02:34.556Z,8.60
2019-03-04T14:05:00.906Z,8.50
2019-03-04T14:07:27.477Z,8.70
2019-03-04T14:09:56.788Z,8.80
2019-03-04T14:12:24.894Z,8.80
2019-03-04T14:14:51.187Z,8.80
2019-03-04T14:17:19.405Z,8.70
2019-03-04T14:19:45.803Z,8.80
2019-03-04T14:22:12.070Z,8.70
2019-03-04T14:24:38.385Z,8.70
2019-03-04T14:27:04.681Z,8.70
2019-03-04T14:29:31.039Z,8.80
2019-03-04T14:31:57.392Z,8.60
2019-03-04T14:34:23.711Z,8.40
2019-03-04T14:36:50.008Z,8.10
2019-03-04T14:39:16.494Z,8.00
2019-03-04T14:41:42.876Z,8.00
2019-03-04T14:44:09.257Z,7.90
2019-03-04T14:46:37.745Z,7.90
2019-03-04T14:49:04.405Z,8.00
2019-03-04T14:51:30.890Z,8.10
2019-03-04T14:53:57.282Z,8.10
2019-03-04T14:56:23.539Z,8.10
2019-03-04T14:59:09.788Z,8.10
2019-03-04T15:01:20.815Z,8.20
2019-03-04T15:03:47.227Z,8.20
2019-03-04T15:06:13.476Z,8.10
2019-03-04T15:08:39.897Z,8.10
2019-03-04T15:11:06.378Z,8.10
2019-03-04T15:13:32.832Z,8.20
2019-03-04T15:16:02.622Z,8.10
2019-03-04T15:18:29.334Z,8.10
2019-03-04T15:20:55.733Z,8.10
2019-03-04T15:23:22.147Z,8.10
2019-03-04T15:25:49.346Z,8.10
2019-03-04T15:28:18.636Z,8.10
2019-03-04T15:30:48.597Z,8.20
2019-03-04T15:33:18.503Z,8.10
2019-03-04T15:35:43.375Z,8.00
2019-03-04T15:38:09.990Z,8.00
2019-03-04T15:40:36.363Z,7.90
2019-03-04T15:43:03.287Z,7.90
2019-03-04T15:45:29.650Z,7.90
2019-03-04T15:47:56.020Z,7.90
2019-03-04T15:50:22.328Z,7.80
2019-03-04T15:52:48.676Z,7.80
2019-03-04T15:55:15.104Z,7.70
2019-03-04T15:57:41.439Z,7.50
2019-03-04T16:00:19.563Z,7.50
2019-03-04T16:02:46.188Z,7.60
2019-03-04T16:05:15.025Z,7.50
2019-03-04T16:07:41.489Z,7.40
2019-03-04T16:10:26.431Z,7.40
2019-03-04T16:12:52.983Z,7.40
2019-03-04T16:15:19.574Z,7.40
2019-03-04T16:17:45.937Z,7.40
2019-03-04T16:20:17.584Z,7.30
2019-03-04T16:22:45.050Z,7.20
2019-03-04T16:25:11.712Z,7.20
2019-03-04T16:27:38.204Z,7.20
2019-03-04T16:30:08.285Z,7.30
2019-03-04T16:32:34.884Z,7.20
2019-03-04T16:35:01.174Z,7.20
2019-03-04T16:37:27.587Z,7.20
2019-03-04T16:39:53.966Z,7.10
2019-03-04T16:42:20.268Z,7.10
2019-03-04T16:44:46.660Z,7.10
2019-03-04T16:47:13.606Z,7.00
2019-03-04T16:49:40.117Z,7.00
2019-03-04T16:52:06.382Z,7.00
2019-03-04T16:54:32.698Z,7.00
2019-03-04T16:56:59.213Z,6.90
2019-03-04T16:59:25.589Z,7.00
2019-03-04T17:01:51.876Z,6.90
2019-03-04T17:04:18.339Z,7.00
2019-03-04T17:06:44.650Z,7.00
2019-03-04T17:09:16.058Z,7.00
2019-03-04T17:11:42.549Z,7.00
2019-03-04T17:14:10.044Z,6.90
2019-03-04T17:16:36.420Z,7.10
2019-03-04T17:19:04.892Z,7.00
2019-03-04T17:21:31.858Z,7.00
2019-03-04T17:23:58.200Z,7.00
2019-03-04T17:26:24.684Z,7.00
2019-03-04T17:28:53.808Z,7.00
2019-03-04T17:31:20.182Z,6.90
2019-03-04T17:33:46.459Z,7.00
2019-03-04T17:36:12.855Z,7.00
2019-03-04T17:38:39.209Z,7.00
2019-03-04T17:41:06.160Z,7.00
2019-03-04T17:43:32.388Z,7.10
2019-03-04T17:45:58.770Z,7.10
2019-03-04T17:48:25.147Z,7.00
2019-03-04T17:50:51.647Z,7.00
2019-03-04T17:53:17.926Z,7.00
2019-03-04T17:55:44.707Z,7.00
2019-03-04T17:58:11.456Z,7.00
2019-03-04T18:00:39.729Z,7.00
2019-03-04T18:03:06.313Z,7.00
2019-03-04T18:05:32.642Z,7.20
2019-03-04T18:07:59.084Z,7.10
2019-03-04T18:10:27.581Z,7.10
2019-03-04T18:12:57.984Z,7.10
2019-03-04T18:15:26.644Z,7.10
2019-03-04T18:17:53.080Z,7.10
2019-03-04T18:20:19.574Z,7.20
2019-03-04T18:22:45.931Z,7.10
2019-03-04T18:25:33.883Z,7.10
2019-03-04T18:28:08.553Z,7.10
2019-03-04T18:31:00.069Z,7.10
2019-03-04T18:33:49.484Z,7.10
2019-03-04T18:36:44.154Z,7.10
2019-03-04T18:39:29.195Z,7.10
2019-03-04T18:42:02.329Z,7.00
2019-03-04T18:44:44.834Z,7.00
2019-03-04T18:47:32.901Z,7.10
2019-03-04T18:49:59.460Z,7.00
2019-03-04T18:52:27.208Z,7.00
2019-03-04T18:54:53.810Z,6.90
2019-03-04T18:57:22.100Z,6.90
2019-03-04T18:59:50.232Z,6.90
2019-03-04T19:02:18.879Z,7.00
2019-03-04T19:04:45.861Z,7.00
2019-03-04T19:07:12.819Z,7.30
2019-03-04T19:09:39.138Z,7.20
2019-03-04T19:12:05.665Z,7.20
2019-03-04T19:14:33.859Z,7.60
2019-03-04T19:17:09.297Z,7.40
2019-03-04T19:19:35.758Z,7.30
2019-03-04T19:22:02.760Z,7.20
2019-03-04T19:24:30.079Z,7.20
2019-03-04T19:26:56.458Z,7.70
2019-03-04T19:29:22.962Z,7.70
2019-03-04T19:31:49.425Z,7.50
2019-03-04T19:34:17.370Z,7.50
2019-03-04T19:36:43.995Z,7.60
2019-03-04T19:39:11.066Z,7.60
2019-03-04T19:41:37.369Z,7.60
2019-03-04T19:44:03.855Z,7.60
2019-03-04T19:46:30.486Z,7.60
2019-03-04T19:48:59.835Z,7.50
2019-03-04T19:51:28.040Z,7.50
2019-03-04T19:53:54.577Z,7.50
2019-03-04T19:56:21.021Z,7.60
2019-03-04T19:58:49.433Z,7.80
2019-03-04T20:01:16.214Z,7.70
2019-03-04T20:03:42.583Z,7.60
2019-03-04T20:06:09.021Z,7.60
2019-03-04T20:08:35.753Z,7.60
2019-03-04T20:11:02.316Z,7.60
2019-03-04T20:13:28.807Z,7.60
2019-03-04T20:15:55.327Z,7.60
2019-03-04T20:18:21.813Z,7.60
2019-03-04T20:20:48.321Z,7.60
2019-03-04T20:23:14.867Z,7.60
2019-03-04T20:25:41.124Z,7.60
2019-03-04T20:28:07.555Z,7.60
2019-03-04T20:30:34.043Z,7.50
2019-03-04T20:33:00.620Z,7.60
2019-03-04T20:35:29.054Z,7.60
2019-03-04T20:38:03.125Z,7.60
2019-03-04T20:40:29.622Z,7.60
2019-03-04T20:43:02.929Z,7.60
2019-03-04T20:45:40.445Z,7.60
2019-03-04T20:48:16.982Z,7.60
2019-03-04T20:50:49.483Z,7.70
2019-03-04T20:53:23.976Z,7.70
2019-03-04T20:56:00.494Z,7.70
2019-03-04T20:58:33.681Z,7.70
2019-03-04T21:01:07.835Z,7.70
2019-03-04T21:03:41.886Z,7.70
2019-03-04T21:06:13.956Z,7.70
2019-03-04T21:08:48.751Z,7.80
2019-03-04T21:11:22.702Z,7.80
2019-03-04T21:13:59.231Z,7.90
2019-03-04T21:16:33.858Z,7.90
2019-03-04T21:19:07.230Z,7.80
2019-03-04T21:21:47.998Z,7.90
2019-03-04T21:24:24.160Z,7.70
2019-03-04T21:26:58.650Z,7.70
2019-03-04T21:29:37.961Z,7.70
2019-03-04T21:32:16.486Z,7.70
2019-03-04T21:34:51.945Z,7.70
2019-03-04T21:37:31.497Z,7.80
2019-03-04T21:40:12.476Z,7.70
2019-03-04T21:42:52.258Z,7.70
2019-03-04T21:45:30.197Z,7.60
2019-03-04T21:48:06.097Z,7.70
2019-03-04T21:50:50.520Z,7.60
2019-03-04T21:53:29.951Z,7.60
2019-03-04T21:56:00.795Z,7.60
2019-03-04T21:58:27.268Z,7.60
2019-03-04T22:00:56.701Z,7.60
2019-03-04T22:03:23.189Z,7.50
2019-03-04T22:05:50.684Z,7.60
2019-03-04T22:08:19.813Z,7.60
2019-03-04T22:10:46.197Z,7.60
2019-03-04T22:13:14.730Z,7.60
2019-03-04T22:15:42.974Z,7.60
2019-03-04T22:18:09.417Z,7.60
2019-03-04T22:20:35.994Z,7.60
2019-03-04T22:23:02.377Z,7.60
2019-03-04T22:25:29.973Z,7.50
2019-03-04T22:27:56.315Z,7.60
2019-03-04T22:30:22.690Z,7.60
2019-03-04T22:32:48.984Z,7.50
2019-03-04T22:35:17.375Z,7.50
2019-03-04T22:37:44.521Z,7.50
2019-03-04T22:40:14.025Z,7.50
2019-03-04T22:42:40.403Z,7.50
2019-03-04T22:45:12.205Z,7.40
2019-03-04T22:47:38.634Z,7.40
2019-03-04T22:50:08.515Z,7.30
2019-03-04T22:52:34.978Z,7.40
2019-03-04T22:55:01.500Z,7.40
2019-03-04T22:57:27.789Z,7.40
2019-03-04T22:59:54.206Z,7.40
2019-03-04T23:02:22.450Z,7.40
2019-03-04T23:04:49.175Z,7.30
2019-03-04T23:07:15.696Z,7.30
2019-03-04T23:09:45.887Z,7.40
2019-03-04T23:12:27.964Z,7.30
2019-03-04T23:14:56.869Z,7.40
2019-03-04T23:17:23.631Z,7.30
2019-03-04T23:19:50.651Z,7.40
2019-03-04T23:22:17.123Z,7.40
2019-03-04T23:24:43.450Z,7.20
2019-03-04T23:27:11.985Z,7.30
2019-03-04T23:29:38.423Z,7.30
2019-03-04T23:32:04.618Z,7.20
2019-03-04T23:34:31.029Z,7.20
2019-03-04T23:36:57.310Z,7.20
2019-03-04T23:39:25.586Z,7.30
2019-03-04T23:41:53.816Z,7.30
2019-03-04T23:44:20.037Z,7.30
2019-03-04T23:46:46.412Z,7.30
2019-03-04T23:49:12.828Z,7.20
2019-03-04T23:51:39.196Z,7.30
2019-03-04T23:54:05.448Z,7.20
2019-03-04T23:56:31.956Z,7.30
2019-03-04T23:58:58.263Z,7.30
